Time;durP1;ratioP1;P1;durP2;ratioP2;P2;SDS_P1;SDS_P2;PMS_P1;PMS_P2;Temp;Humidity;BMP_temperature;BMP_pressure;BME280_temperature;BME280_humidity;BME280_pressure;Samples;Min_cycle;Max_cycle;Signal;HPM_P1;HPM_P2
2022/01/05 00:04:26;;;;;;;;;;;;;;;;;;;;;
2022/01/05 00:08:15;;;;;;;;;;;;;;;;;;;;;
2022/01/05 00:22:12;;;;;;;;;;;;;;;;;;;;;
2022/01/05 00:39:39;;;;;;;39.42;2.33;;;;;;;4.53;100.00;91372.28;4977978;28;20054;-94
2022/01/05 00:43:02;;;;;;;;;;;;;;;;;;;;;
2022/01/05 00:46:35;;;;;;;14.45;1.40;;;;;;;4.44;100.00;91352.44;5030854;28;20051;-93
2022/01/05 00:53:03;;;;;;;;;;;;;;;;;;;;;
2022/01/05 00:57:21;;;;;;;;;;;;;;;;;;;;;
2022/01/05 01:00:27;;;;;;;1.05;0.88;;;;;;;4.53;100.00;91322.25;5051044;28;20049;-95
2022/01/05 01:04:09;;;;;;;;;;;;;;;;;;;;;
2022/01/05 01:07:54;;;;;;;;;;;;;;;;;;;;;
2022/01/05 01:11:10;;;;;;;246.88;5.72;;;;;;;4.53;100.00;91337.81;5070121;28;20052;-94
2022/01/05 01:14:54;;;;;;;143.87;4.60;;;;;;;3.99;100.00;91279.34;5045309;28;20045;-94
2022/01/05 01:18:51;;;;;;;;;;;;;;;;;;;;;
2022/01/05 01:22:28;;;;;;;34.35;2.67;;;;;;;3.87;100.00;91277.88;4960508;29;20055;-93
2022/01/05 01:26:36;;;;;;;2.75;1.50;;;;;;;3.90;100.00;91277.34;4932104;28;20187;-95
2022/01/05 01:41:37;;;;;;;;;;;;;;;;;;;;;
2022/01/05 01:45:34;;;;;;;;;;;;;;;;;;;;;
2022/01/05 01:48:44;;;;;;;;;;;;;;;;;;;;;
2022/01/05 01:56:11;;;;;;;;;;;;;;;;;;;;;
2022/01/05 02:03:28;;;;;;;;;;;;;;;;;;;;;
2022/01/05 02:06:51;;;;;;;0.68;0.60;;;;;;;4.23;100.00;91194.59;5091716;28;20080;-94
2022/01/05 02:14:54;;;;;;;;;;;;;;;;;;;;;
2022/01/05 02:43:09;;;;;;;;;;;;;;;;;;;;;
2022/01/05 02:46:40;;;;;;;;;;;;;;;;;;;;;
2022/01/05 02:50:05;;;;;;;;;;;;;;;4.72;100.00;91198.63;5070538;28;20572;-92
2022/01/05 02:53:33;;;;;;;;;;;;;;;;;;;;;
2022/01/05 02:56:59;;;;;;;;;;;;;;;;;;;;;
2022/01/05 03:00:25;;;;;;;;;;;;;;;;;;;;;
2022/01/05 03:04:08;;;;;;;;;;;;;;;;;;;;;
2022/01/05 03:07:41;;;;;;;116.75;4.25;;;;;;;4.54;100.00;91147.56;5067692;28;20076;-94
2022/01/05 03:14:37;;;;;;;;;;;;;;;;;;;;;
2022/01/05 03:29:56;;;;;;;;;;;;;;;;;;;;;
2022/01/05 03:45:28;;;;;;;;;;;;;;;;;;;;;
2022/01/05 03:52:09;;;;;;;;;;;;;;;;;;;;;
2022/01/05 03:59:29;;;;;;;1.13;0.88;;;;;;;4.64;100.00;91149.22;4978560;28;20115;-95
2022/01/05 04:02:59;;;;;;;1.42;1.02;;;;;;;4.17;100.00;91089.53;5011795;28;20053;-95
2022/01/05 04:06:41;;;;;;;;;;;;;;;;;;;;;
2022/01/05 04:10:14;;;;;;;;;;;;;;;;;;;;;
2022/01/05 04:29:59;;;;;;;0.90;0.85;;;;;;;4.21;100.00;91150.09;4942066;28;20047;-94
2022/01/05 04:48:26;;;;;;;;;;;;;;;;;;;;;
2022/01/05 04:51:55;;;;;;;;;;;;;;;;;;;;;
2022/01/05 04:59:32;;;;;;;;;;;;;;;;;;;;;
2022/01/05 05:16:08;;;;;;;1.38;1.00;;;;;;;4.09;100.00;91134.19;5060842;28;20046;-76
2022/01/05 05:18:34;;;;;;;1.25;0.90;;;;;;;4.13;100.00;91143.69;5031355;28;20043;-75
2022/01/05 05:21:01;;;;;;;144.98;3.70;;;;;;;4.19;100.00;91149.59;5032847;28;20065;-76
2022/01/05 05:23:27;;;;;;;205.93;4.85;;;;;;;4.10;100.00;91143.50;5032710;28;20021;-75
2022/01/05 05:25:53;;;;;;;370.90;7.55;;;;;;;3.94;100.00;91140.31;5032220;28;20043;-76
2022/01/05 05:28:18;;;;;;;209.80;4.95;;;;;;;3.85;100.00;91141.97;5032995;28;20667;-75
2022/01/05 05:30:44;;;;;;;132.55;3.97;;;;;;;3.79;100.00;91140.53;4983903;28;20063;-76
2022/01/05 05:33:09;;;;;;;392.92;8.43;;;;;;;3.69;100.00;91146.56;5050433;28;20039;-75
2022/01/05 05:35:35;;;;;;;437.40;8.60;;;;;;;3.64;100.00;91138.88;5032526;28;20032;-75
2022/01/05 05:38:01;;;;;;;362.85;7.25;;;;;;;3.61;100.00;91124.66;5032449;28;20041;-75
2022/01/05 05:40:27;;;;;;;79.60;3.17;;;;;;;3.55;100.00;91136.09;5050552;28;20067;-75
2022/01/05 05:42:52;;;;;;;178.73;4.68;;;;;;;3.60;100.00;91123.09;5032929;28;20091;-75
2022/01/05 05:45:18;;;;;;;101.00;3.53;;;;;;;3.54;100.00;91114.66;5033172;28;20052;-75
2022/01/05 05:47:44;;;;;;;110.95;3.22;;;;;;;3.51;100.00;91122.97;5050694;28;20047;-75
2022/01/05 05:50:10;;;;;;;220.82;4.72;;;;;;;3.40;100.00;91126.72;5032180;28;20044;-75
2022/01/05 05:52:36;;;;;;;71.10;2.72;;;;;;;3.39;100.00;91121.81;5049921;28;20041;-75
2022/01/05 05:55:03;;;;;;;96.80;3.30;;;;;;;3.40;100.00;91124.13;5031917;28;20040;-75
2022/01/05 05:57:28;;;;;;;108.63;3.20;;;;;;;3.39;100.00;91122.56;5032641;28;20037;-75
2022/01/05 05:59:54;;;;;;;68.55;3.08;;;;;;;3.40;100.00;91124.13;5049102;28;20044;-76
2022/01/05 06:02:19;;;;;;;57.75;2.95;;;;;;;3.42;100.00;91119.41;5049922;28;20033;-75
2022/01/05 06:04:45;;;;;;;84.22;2.95;;;;;;;3.45;100.00;91113.72;5050427;28;20397;-76
2022/01/05 06:07:10;;;;;;;25.55;2.50;;;;;;;3.49;100.00;91111.31;5049797;28;20052;-75
2022/01/05 06:09:36;;;;;;;30.35;2.75;;;;;;;3.48;100.00;91120.91;5050125;28;20740;-75
2022/01/05 06:12:02;;;;;;;2.38;1.30;;;;;;;3.55;100.00;91105.06;5050720;28;20028;-75
2022/01/05 06:14:28;;;;;;;1.50;1.20;;;;;;;3.61;100.00;91116.91;5055998;28;20036;-75
2022/01/05 06:16:53;;;;;;;2.45;1.45;;;;;;;3.66;100.00;91126.41;5052049;28;20134;-75
2022/01/05 06:19:19;;;;;;;2.72;1.50;;;;;;;3.71;100.00;91126.34;5070854;28;20436;-75
2022/01/05 06:21:44;;;;;;;2.90;1.60;;;;;;;3.75;100.00;91117.00;5051902;28;20037;-75
2022/01/05 06:24:11;;;;;;;2.90;1.60;;;;;;;3.75;100.00;91114.41;5063214;28;20057;-75
2022/01/05 06:26:37;;;;;;;2.60;1.50;;;;;;;3.76;100.00;91113.38;5070513;28;20032;-76
2022/01/05 06:29:03;;;;;;;1.70;1.17;;;;;;;3.89;100.00;91119.66;5069781;28;20439;-75
2022/01/05 06:31:29;;;;;;;2.08;1.30;;;;;;;3.85;100.00;91123.84;5069896;28;20032;-75
2022/01/05 06:33:55;;;;;;;1.95;1.38;;;;;;;3.84;100.00;91107.56;5051936;28;20041;-76
2022/01/05 06:36:21;;;;;;;3.25;1.20;;;;;;;3.84;100.00;91106.78;5070119;28;20469;-76
2022/01/05 06:38:46;;;;;;;1.92;1.20;;;;;;;3.84;100.00;91102.38;5055863;28;20060;-76
2022/01/05 06:41:12;;;;;;;2.10;1.30;;;;;;;3.86;100.00;91092.53;5074327;28;20028;-76
2022/01/05 06:43:38;;;;;;;2.33;1.30;;;;;;;3.87;100.00;91088.91;5073549;28;20519;-76
2022/01/05 06:46:03;;;;;;;1.05;0.90;;;;;;;3.90;100.00;91090.94;5073836;28;20028;-76
2022/01/05 06:48:29;;;;;;;1.27;0.82;;;;;;;3.90;100.00;91090.94;5056018;28;20386;-76
2022/01/05 06:50:54;;;;;;;1.55;1.10;;;;;;;3.93;100.00;91092.94;5073505;28;20041;-76
2022/01/05 06:53:20;;;;;;;2.28;1.38;;;;;;;3.96;100.00;91100.16;5077550;28;20036;-76
2022/01/05 06:55:46;;;;;;;2.65;1.50;;;;;;;4.00;100.00;91095.19;5054067;28;20123;-77
2022/01/05 06:58:11;;;;;;;3.92;2.00;;;;;;;3.94;100.00;91091.91;5036428;28;20047;-76
2022/01/05 07:00:37;;;;;;;3.20;2.00;;;;;;;3.92;100.00;91093.25;5060587;28;20114;-77
2022/01/05 07:03:04;;;;;;;3.80;2.30;;;;;;;3.87;100.00;91086.31;5071831;28;20103;-77
2022/01/05 07:05:31;;;;;;;3.92;2.45;;;;;;;3.85;100.00;91078.06;5071200;28;20040;-78
2022/01/05 07:07:58;;;;;;;3.78;2.28;;;;;;;3.82;100.00;91073.41;5072754;28;20456;-76
2022/01/05 07:10:23;;;;;;;3.35;1.85;;;;;;;3.83;100.00;91072.38;5073935;28;20048;-77
2022/01/05 07:12:51;;;;;;;2.95;1.80;;;;;;;3.84;100.00;91071.31;5073982;28;20028;-76
2022/01/05 07:15:17;;;;;;;2.05;1.20;;;;;;;3.83;100.00;91072.38;5072177;28;20060;-76
2022/01/05 07:17:43;;;;;;;0.50;0.50;;;;;;;3.84;100.00;91075.72;5072414;28;20040;-77
2022/01/05 07:20:09;;;;;;;0.40;0.40;;;;;;;3.87;97.70;91075.97;5073420;28;20089;-77
2022/01/05 07:22:36;;;;;;;0.63;0.50;;;;;;;3.92;96.63;91075.88;5071923;28;20028;-77
2022/01/05 07:25:03;;;;;;;0.40;0.40;;;;;;;3.94;95.85;91076.38;5072155;28;20036;-77
2022/01/05 07:27:28;;;;;;;0.70;0.55;;;;;;;3.94;95.96;91078.97;5038260;28;20082;-77
2022/01/05 07:29:54;;;;;;;0.30;0.30;;;;;;;3.99;95.21;91074.78;5054710;28;20037;-77
2022/01/05 07:32:20;;;;;;;0.40;0.40;;;;;;;4.04;94.60;91082.47;5045627;28;20029;-77
2022/01/05 07:34:45;;;;;;;2.40;1.00;;;;;;;4.00;95.19;91078.88;5007796;28;20140;-77
2022/01/05 07:37:11;;;;;;;3.13;1.65;;;;;;;4.04;96.12;91092.81;5071675;28;20064;-77
2022/01/05 07:39:37;;;;;;;60.42;3.75;;;;;;;4.03;97.69;91093.84;5055155;28;20060;-76
2022/01/05 07:42:04;;;;;;;103.05;4.47;;;;;;;3.95;98.61;91096.03;5054843;28;20085;-77
2022/01/05 07:44:29;;;;;;;11.90;2.63;;;;;;;3.88;99.66;91098.19;5038654;28;20045;-77
2022/01/05 07:46:55;;;;;;;5.50;3.30;;;;;;;3.84;99.90;91096.44;5037379;28;20028;-77
2022/01/05 07:49:21;;;;;;;7.93;4.50;;;;;;;3.81;100.00;91102.94;5017618;28;20043;-77
2022/01/05 07:51:46;;;;;;;5.32;2.85;;;;;;;3.78;100.00;91107.91;5072555;28;20059;-77
2022/01/05 07:54:12;;;;;;;3.67;2.10;;;;;;;3.77;100.00;91101.19;5054085;28;20041;-77
2022/01/05 07:56:38;;;;;;;3.70;1.92;;;;;;;3.77;100.00;91099.38;5036283;28;20034;-77
2022/01/05 07:59:04;;;;;;;2.58;1.50;;;;;;;3.79;100.00;91094.69;5072627;28;20036;-77
2022/01/05 08:01:30;;;;;;;1.88;1.15;;;;;;;3.82;100.00;91098.53;5054222;28;20047;-77
2022/01/05 08:03:56;;;;;;;1.17;0.98;;;;;;;3.81;100.00;91092.59;5054426;28;20021;-77
2022/01/05 08:06:22;;;;;;;1.73;1.08;;;;;;;3.87;100.00;91090.69;5071423;28;20036;-77
2022/01/05 08:08:49;;;;;;;1.58;0.93;;;;;;;3.91;100.00;91087.28;5071903;28;20420;-77
2022/01/05 08:11:15;;;;;;;1.73;0.88;;;;;;;4.06;100.00;91088.13;5037771;28;20495;-75
2022/01/05 08:13:42;;;;;;;0.60;0.60;;;;;;;4.19;100.00;91097.78;5067668;28;20158;-78
2022/01/05 08:16:08;;;;;;;0.80;0.70;;;;;;;4.69;98.65;91100.69;5055058;28;20082;-77
2022/01/05 08:18:34;;;;;;;0.80;0.80;;;;;;;4.83;96.96;91095.53;5078600;28;20054;-77
2022/01/05 08:21:00;;;;;;;1.40;1.10;;;;;;;4.85;96.79;91092.66;5076628;28;20379;-78
2022/01/05 08:23:26;;;;;;;1.25;0.85;;;;;;;4.69;93.81;91079.94;5081777;28;20139;-78
2022/01/05 08:25:52;;;;;;;1.77;1.13;;;;;;;4.80;94.00;91102.06;5083714;28;20070;-79
2022/01/05 08:28:19;;;;;;;2.17;1.23;;;;;;;4.82;94.87;91103.59;5065234;28;20382;-78
2022/01/05 08:30:45;;;;;;;2.35;1.05;;;;;;;4.88;94.95;91097.28;5079700;28;20044;-81
2022/01/05 08:33:13;;;;;;;1.52;1.10;;;;;;;4.85;94.67;91095.25;5076702;28;20035;-80
2022/01/05 08:35:39;;;;;;;1.98;1.00;;;;;;;4.85;93.82;91093.44;5061476;28;20032;-81
2022/01/05 08:38:06;;;;;;;0.80;0.68;;;;;;;4.89;88.31;91081.44;5072913;28;20036;-81
2022/01/05 08:40:35;;;;;;;0.50;0.50;;;;;;;5.01;85.86;91078.38;5078133;28;20036;-82
2022/01/05 08:43:03;;;;;;;0.60;0.60;;;;;;;5.22;84.79;91076.19;5076957;28;20036;-82
2022/01/05 08:45:30;;;;;;;0.57;0.57;;;;;;;5.55;80.46;91078.72;5077054;28;20032;-81
2022/01/05 08:47:58;;;;;;;0.73;0.60;;;;;;;6.12;78.84;91071.34;5078248;28;20018;-81
2022/01/05 08:50:26;;;;;;;0.45;0.45;;;;;;;6.96;74.69;91058.75;5077473;28;20043;-80
2022/01/05 08:52:53;;;;;;;0.50;0.50;;;;;;;7.57;69.83;91048.63;5082802;28;20056;-81
2022/01/05 08:55:22;;;;;;;0.50;0.50;;;;;;;8.81;66.64;91041.38;5081712;28;20076;-81
2022/01/05 08:57:49;;;;;;;0.50;0.50;;;;;;;10.67;61.42;91037.22;5084704;28;20092;-81
2022/01/05 09:00:16;;;;;;;0.60;0.60;;;;;;;13.15;54.58;91037.53;5082186;28;20359;-81
2022/01/05 09:02:42;;;;;;;0.68;0.68;;;;;;;14.73;49.28;91024.28;5076185;28;20069;-81
2022/01/05 09:05:09;;;;;;;0.45;0.43;;;;;;;15.40;48.78;91026.63;5082520;28;20719;-81
2022/01/05 09:07:36;;;;;;;0.43;0.43;;;;;;;15.36;44.11;91027.69;5083225;28;20090;-81
2022/01/05 09:10:04;;;;;;;0.40;0.40;;;;;;;14.88;46.68;91025.31;5081212;28;20444;-80
2022/01/05 09:12:31;;;;;;;0.45;0.45;;;;;;;14.34;46.14;91018.16;5078550;28;20028;-79
2022/01/05 09:14:56;;;;;;;0.55;0.40;;;;;;;14.65;43.31;91030.50;5064211;28;20068;-81
2022/01/05 09:17:22;;;;;;;0.32;0.32;;;;;;;14.20;45.58;91031.78;5081365;28;20044;-82
2022/01/05 09:20:07;;;;;;;0.35;0.35;;;;;;;14.08;43.46;91029.28;5064725;28;20052;-79
2022/01/05 09:22:37;;;;;;;0.30;0.30;;;;;;;13.85;44.50;91029.16;5060164;28;20025;-82
2022/01/05 09:25:05;;;;;;;0.30;0.30;;;;;;;14.78;42.65;91023.97;5084009;28;20036;-81
2022/01/05 09:27:31;;;;;;;0.40;0.40;;;;;;;15.70;39.93;91035.78;5080372;28;20108;-81
2022/01/05 09:29:57;;;;;;;0.30;0.30;;;;;;;15.28;40.06;91041.84;5080326;28;20044;-81
2022/01/05 09:32:22;;;;;;;0.30;0.30;;;;;;;13.22;40.60;91045.63;5082601;28;20029;-81
2022/01/05 09:34:50;;;;;;;0.40;0.40;;;;;;;12.18;42.73;91063.78;5080240;28;20028;-80
2022/01/05 09:37:26;;;;;;;0.32;0.32;;;;;;;11.45;45.42;91068.63;5080195;28;20025;-80
2022/01/05 09:42:38;;;;;;;0.50;0.50;;;;;;;12.25;45.84;91058.75;5079579;28;20608;-80
2022/01/05 09:45:18;;;;;;;0.30;0.30;;;;;;;12.63;46.45;91057.56;5078908;28;20565;-81
2022/01/05 09:48:08;;;;;;;1.95;0.40;;;;;;;12.41;43.46;91062.22;5079533;28;20036;-81
2022/01/05 09:50:35;;;;;;;1.40;0.60;;;;;;;11.15;43.47;91062.03;5079122;28;20093;-81
2022/01/05 09:53:03;;;;;;;0.30;0.30;;;;;;;10.62;45.29;91062.50;5077860;28;20035;-80
2022/01/05 09:55:28;;;;;;;0.50;0.50;;;;;;;11.04;47.29;91065.06;5078203;28;20032;-81
2022/01/05 09:57:55;;;;;;;0.40;0.40;;;;;;;10.86;47.13;91061.06;5074614;28;20066;-80
2022/01/05 10:00:20;;;;;;;0.43;0.43;;;;;;;10.86;46.83;91065.56;5078175;28;20036;-80
2022/01/05 10:02:49;;;;;;;0.40;0.40;;;;;;;10.58;48.06;91060.84;5076517;28;20043;-80
2022/01/05 10:05:16;;;;;;;0.40;0.40;;;;;;;10.24;47.45;91061.81;5080981;28;20028;-81
2022/01/05 10:07:43;;;;;;;0.40;0.40;;;;;;;10.06;47.30;91050.72;5081759;28;20036;-80
2022/01/05 10:10:10;;;;;;;0.40;0.40;;;;;;;9.95;47.40;91058.94;5081377;28;20025;-80
2022/01/05 10:12:36;;;;;;;1.27;0.57;;;;;;;9.83;48.13;91055.47;5077722;28;20111;-78
2022/01/05 10:15:03;;;;;;;0.40;0.40;;;;;;;10.32;47.86;91053.97;5081502;28;20072;-81
2022/01/05 10:17:31;;;;;;;0.40;0.40;;;;;;;10.87;45.29;91046.13;5062534;28;20112;-81
2022/01/05 10:20:06;;;;;;;0.68;0.50;;;;;;;11.54;43.48;91052.06;5062897;28;20032;-81
2022/01/05 10:22:42;;;;;;;0.50;0.50;;;;;;;12.15;46.23;91044.22;5080592;28;20041;-79
2022/01/05 10:25:08;;;;;;;0.43;0.43;;;;;;;12.86;44.99;91055.97;5062194;28;20454;-81
2022/01/05 10:27:57;;;;;;;0.40;0.40;;;;;;;13.59;42.84;91050.69;5027150;28;20021;-81
2022/01/05 10:30:43;;;;;;;0.30;0.30;;;;;;;13.99;38.99;91041.84;5045316;28;20058;-81
2022/01/05 10:33:09;;;;;;;0.73;0.50;;;;;;;14.05;37.53;91053.63;5080496;28;20056;-80
2022/01/05 10:35:36;;;;;;;0.43;0.40;;;;;;;12.91;40.60;91055.72;5061333;28;20029;-80
2022/01/05 10:38:12;;;;;;;0.40;0.40;;;;;;;11.69;43.14;91043.56;5080101;28;20041;-81
2022/01/05 10:40:38;;;;;;;0.50;0.50;;;;;;;10.88;46.32;91048.44;5077838;28;20498;-81
2022/01/05 10:43:12;;;;;;;0.93;0.70;;;;;;;10.66;46.80;91051.41;5078407;28;20036;-80
2022/01/05 10:45:51;;;;;;;1.98;1.10;;;;;;;10.62;53.55;91046.03;5078778;28;20028;-82
2022/01/05 10:48:20;;;;;;;1.15;0.82;;;;;;;11.12;50.45;91063.44;5062144;28;20123;-80
2022/01/05 10:51:01;;;;;;;1.50;0.90;;;;;;;11.87;50.06;91055.38;5059706;28;20051;-82
2022/01/05 10:53:26;;;;;;;2.20;1.38;;;;;;;11.80;54.18;91052.53;5079585;28;20028;-82
2022/01/05 10:55:52;;;;;;;2.03;1.20;;;;;;;11.62;51.20;91053.84;5061044;28;20488;-82
2022/01/05 10:58:19;;;;;;;1.83;1.20;;;;;;;11.14;54.55;91050.03;5044176;28;20040;-80
2022/01/05 11:00:53;;;;;;;1.90;1.30;;;;;;;10.28;54.20;91057.50;5061948;28;20037;-80
2022/01/05 11:03:37;;;;;;;2.28;1.35;;;;;;;9.93;51.50;91063.72;5061196;28;20107;-81
2022/01/05 11:06:04;;;;;;;2.72;1.50;;;;;;;10.31;58.54;91052.44;5078998;28;20036;-80
2022/01/05 11:08:33;;;;;;;0.90;0.80;;;;;;;10.08;59.24;91046.69;5078397;28;20024;-79
2022/01/05 11:10:59;;;;;;;1.63;1.10;;;;;;;10.16;53.29;91032.81;5066667;28;20032;-83
2022/01/05 11:13:27;;;;;;;0.93;0.70;;;;;;;10.99;51.34;91044.31;5081337;28;20482;-82
2022/01/05 11:15:58;;;;;;;1.02;0.73;;;;;;;11.80;46.30;91044.66;5074773;28;20060;-82
2022/01/05 11:18:24;;;;;;;1.08;0.70;;;;;;;12.39;47.48;91037.41;5079147;28;20075;-82
2022/01/05 11:21:01;;;;;;;0.80;0.77;;;;;;;12.38;45.79;91041.09;5076833;28;20020;-82
2022/01/05 11:23:28;;;;;;;1.85;0.70;;;;;;;12.05;43.56;91031.56;5078225;28;20446;-82
2022/01/05 11:25:56;;;;;;;1.10;0.73;;;;;;;11.63;44.11;91029.13;5075925;28;20040;-82
2022/01/05 11:28:24;;;;;;;2.35;0.75;;;;;;;12.42;43.81;91041.97;5075792;28;20040;-82
2022/01/05 11:30:53;;;;;;;0.40;0.40;;;;;;;13.20;36.86;91045.19;5073321;28;20032;-81
2022/01/05 11:33:20;;;;;;;1.40;0.50;;;;;;;13.59;36.20;91040.16;5075031;28;20726;-81
2022/01/05 11:35:46;;;;;;;0.40;0.40;;;;;;;14.09;34.65;91034.19;5071479;28;20088;-82
2022/01/05 11:38:12;;;;;;;1.63;0.68;;;;;;;13.71;36.86;91034.81;5073211;28;20048;-82
2022/01/05 11:40:45;;;;;;;0.60;0.40;;;;;;;13.94;36.23;91033.13;5076270;28;20115;-83
2022/01/05 11:43:13;;;;;;;;;;;;;;;14.43;33.66;91031.13;5080566;28;20047;-83
2022/01/05 11:45:45;;;;;;;0.40;0.40;;;;;;;14.59;32.04;91034.53;5079301;28;19915;-83
2022/01/05 11:48:28;;;;;;;0.70;0.70;;;;;;;14.01;36.84;91023.88;5075951;28;20044;-83
2022/01/05 11:51:03;;;;;;;0.55;0.55;;;;;;;14.61;31.84;91024.38;5078609;28;20513;-83
2022/01/05 12:00:18;;;;;;;0.40;0.40;;;;;;;15.12;29.61;91024.25;5075089;28;20032;-82
2022/01/05 12:02:44;;;;;;;0.47;0.40;;;;;;;15.23;28.99;91023.69;5069464;28;20081;-83
2022/01/05 12:09:26;;;;;;;0.40;0.40;;;;;;;15.80;27.17;91014.09;5068862;28;20417;-80
2022/01/05 12:11:52;;;;;;;0.45;0.40;;;;;;;16.25;26.67;91020.41;5079019;28;20029;-79
2022/01/05 12:14:20;;;;;;;0.30;0.30;;;;;;;15.78;28.72;91021.59;5079296;28;20123;-79
2022/01/05 12:20:55;;;;;;;0.40;0.40;;;;;;;15.71;26.86;91016.22;5079787;28;20085;-79
2022/01/05 12:23:28;;;;;;;0.40;0.40;;;;;;;16.19;26.15;91012.06;5061276;28;20063;-79
2022/01/05 12:26:07;;;;;;;0.40;0.40;;;;;;;16.08;25.71;91007.75;5060963;28;20519;-79
2022/01/05 12:28:38;;;;;;;0.20;0.20;;;;;;;16.25;25.40;91007.22;5079685;28;20040;-78
2022/01/05 12:31:05;;;;;;;0.28;0.28;;;;;;;16.33;26.42;91008.84;5078181;28;20486;-78
2022/01/05 12:33:46;;;;;;;0.40;0.40;;;;;;;16.22;25.94;91002.66;5060760;28;20078;-79
2022/01/05 12:36:15;;;;;;;0.30;0.30;;;;;;;16.39;24.01;90991.56;5077770;28;20036;-79
2022/01/05 12:38:54;;;;;;;0.93;0.30;;;;;;;16.54;23.59;90994.38;5059724;28;20117;-78
2022/01/05 12:41:44;;;;;;;0.30;0.30;;;;;;;16.00;23.53;90986.50;5059610;28;20566;-79
2022/01/05 12:44:13;;;;;;;0.45;0.40;;;;;;;16.14;24.23;90993.09;5077664;28;20025;-79
2022/01/05 12:46:46;;;;;;;0.35;0.30;;;;;;;15.99;24.12;90987.63;5059587;28;20075;-79
2022/01/05 12:49:31;;;;;;;0.30;0.30;;;;;;;15.54;24.73;90991.06;5077807;28;20052;-78
2022/01/05 12:52:15;;;;;;;0.63;0.40;;;;;;;15.10;23.92;90996.72;5058527;28;20076;-79
2022/01/05 12:54:53;;;;;;;0.40;0.40;;;;;;;15.68;24.82;91001.06;5059115;28;20044;-79
2022/01/05 12:57:22;;;;;;;0.40;0.40;;;;;;;15.76;24.16;91008.00;5076052;28;20040;-79
2022/01/05 12:59:50;;;;;;;0.28;0.28;;;;;;;15.03;23.80;90991.31;5077077;28;20036;-79
2022/01/05 13:02:23;;;;;;;0.40;0.40;;;;;;;15.44;23.00;90992.41;5058971;28;20393;-79
2022/01/05 13:04:51;;;;;;;0.30;0.30;;;;;;;15.36;22.17;90999.44;5058015;28;20673;-78
2022/01/05 13:07:17;;;;;;;0.30;0.30;;;;;;;15.02;21.98;90981.88;5041261;28;20039;-79
2022/01/05 13:09:49;;;;;;;0.40;0.40;;;;;;;14.89;23.94;90994.47;5075819;28;20032;-77
2022/01/05 13:12:17;;;;;;;0.30;0.30;;;;;;;14.23;21.70;90991.66;5057946;28;20032;-78
2022/01/05 13:14:46;;;;;;;0.30;0.30;;;;;;;14.56;23.37;90987.81;5075260;28;20055;-78
2022/01/05 13:17:14;;;;;;;0.40;0.40;;;;;;;14.72;22.99;90983.22;5076856;28;20504;-78
2022/01/05 13:19:51;;;;;;;0.30;0.30;;;;;;;14.50;22.95;90979.41;5076899;28;20036;-78
2022/01/05 13:22:37;;;;;;;0.30;0.30;;;;;;;13.52;23.57;90988.94;5076605;28;20434;-77
2022/01/05 13:25:11;;;;;;;0.30;0.30;;;;;;;13.41;24.62;90985.31;5077424;28;20040;-77
2022/01/05 13:27:42;;;;;;;0.30;0.30;;;;;;;13.38;24.38;90970.22;5078061;28;20040;-78
2022/01/05 13:30:18;;;;;;;0.68;0.40;;;;;;;13.01;24.97;90978.28;5058184;28;20115;-77
2022/01/05 13:32:45;;;;;;;0.30;0.30;;;;;;;13.68;22.97;90972.41;5076492;28;20036;-77
2022/01/05 13:35:47;;;;;;;0.30;0.30;;;;;;;13.87;23.09;90972.47;5078408;28;20035;-78
2022/01/05 13:38:16;;;;;;;0.65;0.43;;;;;;;13.46;22.82;90969.25;5080994;28;20517;-78
2022/01/05 13:40:49;;;;;;;0.30;0.30;;;;;;;13.30;23.16;90974.53;5062805;28;20028;-78
2022/01/05 13:43:16;;;;;;;0.30;0.30;;;;;;;13.17;23.37;90985.44;5079907;28;20094;-77
2022/01/05 13:45:47;;;;;;;1.38;0.40;;;;;;;13.24;22.63;90985.59;5054796;28;20041;-80
2022/01/05 13:48:19;;;;;;;0.77;0.40;;;;;;;13.24;23.19;90998.72;5077571;28;20162;-81
2022/01/05 13:50:47;;;;;;;2.72;0.40;;;;;;;12.53;23.24;90990.56;5080373;28;20085;-80
2022/01/05 13:53:16;;;;;;;1.95;0.47;;;;;;;12.22;22.12;91002.44;5063129;28;20095;-80
2022/01/05 13:55:57;;;;;;;0.40;0.40;;;;;;;11.65;22.81;90990.25;5073362;28;20079;-80
2022/01/05 13:58:28;;;;;;;0.30;0.30;;;;;;;11.98;21.75;90998.03;5061771;28;20587;-83
2022/01/05 14:04:16;;;;;;;0.55;0.38;;;;;;;11.83;23.53;91009.91;5059892;28;20410;-80
2022/01/05 14:06:42;;;;;;;0.30;0.30;;;;;;;11.91;23.31;91013.56;5060659;28;20062;-80
2022/01/05 14:09:08;;;;;;;0.40;0.40;;;;;;;11.80;22.61;90996.72;5062303;28;20108;-80
2022/01/05 14:11:34;;;;;;;0.30;0.30;;;;;;;11.78;22.52;91007.50;5080612;28;20325;-80
2022/01/05 14:14:19;;;;;;;0.30;0.30;;;;;;;11.61;22.87;91021.59;5064656;28;20032;-80
2022/01/05 14:16:47;;;;;;;0.30;0.30;;;;;;;11.63;23.04;91029.13;5100141;28;20047;-80
2022/01/05 14:19:25;;;;;;;0.47;0.47;;;;;;;11.29;22.24;91020.59;5095520;28;20105;-80
2022/01/05 14:22:05;;;;;;;0.40;0.40;;;;;;;11.30;22.98;91026.59;5079019;28;20036;-80
2022/01/05 14:24:33;;;;;;;0.50;0.50;;;;;;;11.23;23.00;91048.06;5061998;28;20031;-79
2022/01/05 14:26:59;;;;;;;0.30;0.30;;;;;;;11.05;21.87;91031.78;5061084;28;20024;-81
2022/01/05 14:29:25;;;;;;;0.38;0.38;;;;;;;10.65;22.38;91040.16;5078249;28;20028;-82
2022/01/05 14:31:59;;;;;;;0.43;0.43;;;;;;;11.02;23.47;91032.44;5061094;28;20033;-81
2022/01/05 14:34:26;;;;;;;0.40;0.40;;;;;;;10.92;22.64;91033.63;5061080;28;20036;-81
2022/01/05 14:37:05;;;;;;;0.95;0.40;;;;;;;10.73;22.26;91041.94;5062333;28;20038;-81
2022/01/05 14:39:39;;;;;;;0.47;0.47;;;;;;;10.72;22.40;91047.50;5079270;28;20071;-81
2022/01/05 14:42:24;;;;;;;0.55;0.43;;;;;;;10.49;23.43;91058.31;5072401;28;20040;-80
2022/01/05 14:44:53;;;;;;;1.00;0.40;;;;;;;9.50;23.28;91050.84;5047095;28;20040;-80
2022/01/05 14:47:24;;;;;;;0.40;0.40;;;;;;;9.86;23.08;91063.44;5070009;28;20120;-82
2022/01/05 14:49:50;;;;;;;0.40;0.40;;;;;;;9.90;23.76;91058.34;5068137;28;20039;-81
2022/01/05 14:52:20;;;;;;;0.90;0.57;;;;;;;10.31;23.47;91056.88;5078161;28;20367;-82
2022/01/05 14:54:45;;;;;;;0.50;0.50;;;;;;;9.87;23.24;91044.06;5048877;28;20102;-81
2022/01/05 14:57:21;;;;;;;0.40;0.40;;;;;;;9.78;23.52;91061.63;5070959;28;20032;-81
2022/01/05 14:59:48;;;;;;;0.40;0.40;;;;;;;8.42;25.30;91077.78;5066781;28;20036;-81
2022/01/05 15:02:14;;;;;;;0.30;0.30;;;;;;;7.69;25.82;91083.41;5056185;28;20203;-80
2022/01/05 15:04:39;;;;;;;0.35;0.35;;;;;;;7.39;25.58;91053.00;5065110;28;20099;-80
2022/01/05 15:07:07;;;;;;;0.43;0.43;;;;;;;6.77;27.32;91064.16;5048627;28;20025;-80
2022/01/05 15:09:32;;;;;;;0.75;0.60;;;;;;;6.56;26.99;91069.84;5046094;28;20037;-80
2022/01/05 15:11:58;;;;;;;0.52;0.50;;;;;;;6.50;27.28;91075.47;5067263;28;20021;-81
2022/01/05 15:14:26;;;;;;;0.40;0.40;;;;;;;6.43;27.31;91071.44;5069658;28;20041;-81
2022/01/05 15:16:51;;;;;;;0.52;0.45;;;;;;;6.28;30.51;91082.16;5060009;28;20049;-81
2022/01/05 15:19:36;;;;;;;4.65;0.50;;;;;;;6.16;26.66;91094.91;5044061;28;20037;-82
2022/01/05 15:22:02;;;;;;;0.40;0.40;;;;;;;5.73;26.47;91069.28;5032200;28;20589;-81
2022/01/05 15:24:28;;;;;;;0.40;0.40;;;;;;;5.59;28.22;91079.66;5033932;28;20063;-82
2022/01/05 15:26:54;;;;;;;0.60;0.50;;;;;;;5.45;28.49;91084.88;5057874;28;20033;-80
2022/01/05 15:29:19;;;;;;;0.40;0.40;;;;;;;5.36;27.79;91084.00;5031455;28;20462;-82
2022/01/05 15:31:47;;;;;;;0.40;0.40;;;;;;;5.32;28.03;91083.03;5044340;28;20117;-80
2022/01/05 15:34:13;;;;;;;0.60;0.60;;;;;;;5.21;27.69;91091.00;5038060;28;20053;-82
2022/01/05 15:36:39;;;;;;;0.43;0.43;;;;;;;5.17;28.00;91095.22;5041270;28;20060;-77
2022/01/05 15:39:05;;;;;;;0.30;0.30;;;;;;;5.09;27.10;91093.28;5052490;28;20425;-81
2022/01/05 15:41:31;;;;;;;0.40;0.40;;;;;;;4.95;28.13;91106.25;5039037;28;20110;-80
2022/01/05 15:43:57;;;;;;;0.40;0.40;;;;;;;4.88;27.98;91105.03;5054858;28;20107;-81
2022/01/05 15:46:23;;;;;;;0.40;0.40;;;;;;;4.83;27.75;91105.13;5058794;28;20079;-81
2022/01/05 15:48:50;;;;;;;0.70;0.60;;;;;;;4.74;28.16;91103.19;5041730;28;20078;-81
2022/01/05 15:51:17;;;;;;;0.50;0.50;;;;;;;4.62;29.18;91115.81;5058673;28;20036;-81
2022/01/05 15:53:43;;;;;;;0.40;0.40;;;;;;;4.44;28.76;91111.44;5039758;28;20064;-81
2022/01/05 15:56:15;;;;;;;0.40;0.40;;;;;;;4.50;27.43;91118.88;5058660;28;20044;-80
2022/01/05 16:01:30;;;;;;;0.68;0.60;;;;;;;4.05;30.94;91126.19;5055644;28;20541;-81
2022/01/05 16:04:03;;;;;;;0.50;0.50;;;;;;;4.08;30.54;91137.84;5055229;28;20025;-81
2022/01/05 16:06:30;;;;;;;0.63;0.52;;;;;;;4.06;29.34;91121.81;5037845;28;20048;-81
2022/01/05 16:08:56;;;;;;;6.13;0.85;;;;;;;3.92;31.01;91139.84;5051315;28;20488;-81
2022/01/05 16:11:22;;;;;;;0.68;0.60;;;;;;;3.95;28.84;91145.22;5058804;28;20045;-79
2022/01/05 16:13:48;;;;;;;1.00;0.60;;;;;;;3.82;30.38;91156.25;5041731;28;20033;-80